createdAt,value
2019-03-10T00:02:18.048Z,11.75
2019-03-10T00:07:22.665Z,9.38
2019-03-10T00:12:27.122Z,5.20
2019-03-10T00:17:31.789Z,4.30
2019-03-10T00:22:36.221Z,3.58
2019-03-10T00:27:40.655Z,5.25
2019-03-10T00:32:45.089Z,6.12
2019-03-10T00:37:49.887Z,5.15
2019-03-10T00:43:19.149Z,5.20
2019-03-10T00:48:49.695Z,8.43
2019-03-10T00:53:54.437Z,7.03
2019-03-10T00:58:58.872Z,4.67
2019-03-10T01:04:03.318Z,1.37
2019-03-10T01:09:07.923Z,1.42
2019-03-10T01:14:14.536Z,5.12
2019-03-10T01:19:19.482Z,6.30
2019-03-10T01:24:24.117Z,5.87
2019-03-10T01:29:28.527Z,14.00
2019-03-10T01:34:41.895Z,12.03
2019-03-10T01:39:46.329Z,7.92
2019-03-10T01:44:51.046Z,9.00
2019-03-10T01:49:55.542Z,11.80
2019-03-10T01:55:00.018Z,7.73
2019-03-10T02:00:06.528Z,4.60
2019-03-10T02:05:12.805Z,5.55
2019-03-10T02:10:17.549Z,6.97
2019-03-10T02:15:22.288Z,6.45
2019-03-10T02:20:27.029Z,8.98
2019-03-10T02:25:31.771Z,14.83
2019-03-10T02:30:36.517Z,10.75
2019-03-10T02:35:40.947Z,9.67
2019-03-10T02:40:45.691Z,10.20
2019-03-10T02:45:50.431Z,11.97
2019-03-10T02:50:56.094Z,11.97
2019-03-10T02:56:00.838Z,9.05
2019-03-10T03:01:05.451Z,10.83
2019-03-10T03:06:10.946Z,9.37
2019-03-10T03:11:15.677Z,9.83
2019-03-10T03:16:20.122Z,10.78
2019-03-10T03:21:24.860Z,10.15
2019-03-10T03:26:29.300Z,6.37
2019-03-10T03:31:34.031Z,17.50
2019-03-10T03:36:38.562Z,14.58
2019-03-10T03:41:43.208Z,12.78
2019-03-10T03:46:47.948Z,15.23
2019-03-10T03:51:52.384Z,16.15
2019-03-10T03:56:56.818Z,14.45
2019-03-10T04:02:03.095Z,17.57
2019-03-10T04:07:07.608Z,17.73
2019-03-10T04:12:12.274Z,13.03
2019-03-10T04:17:17.014Z,16.67
2019-03-10T04:22:21.447Z,12.70
2019-03-10T04:27:26.191Z,11.70
2019-03-10T04:32:30.753Z,11.00
2019-03-10T04:37:35.674Z,15.05
2019-03-10T04:42:40.414Z,15.18
2019-03-10T04:47:45.156Z,13.70
2019-03-10T04:52:49.598Z,10.70
2019-03-10T04:57:58.636Z,17.30
2019-03-10T05:03:03.152Z,10.17
2019-03-10T05:08:07.811Z,9.00
2019-03-10T05:13:12.552Z,10.32
2019-03-10T05:18:17.063Z,6.85
2019-03-10T05:23:30.026Z,13.60
2019-03-10T05:28:40.069Z,13.57
2019-03-10T05:33:44.734Z,11.13
2019-03-10T05:38:49.165Z,10.10
2019-03-10T05:43:53.602Z,9.00
2019-03-10T05:48:58.121Z,8.13
2019-03-10T05:54:02.775Z,9.90
2019-03-10T05:59:07.288Z,5.40
2019-03-10T06:04:11.986Z,11.53
2019-03-10T06:09:16.411Z,7.20
2019-03-10T06:14:20.910Z,6.50
2019-03-10T06:19:25.565Z,8.13
2019-03-10T06:24:31.228Z,11.22
2019-03-10T06:29:35.660Z,9.35
2019-03-10T06:34:40.403Z,9.60
2019-03-10T06:39:44.838Z,8.60
2019-03-10T06:44:49.886Z,9.53
2019-03-10T06:49:54.628Z,13.35
2019-03-10T06:54:59.062Z,8.13
2019-03-10T07:00:04.261Z,6.95
2019-03-10T07:05:11.803Z,11.25
2019-03-10T07:10:17.259Z,11.50
2019-03-10T07:15:21.715Z,8.15
2019-03-10T07:20:26.151Z,10.03
2019-03-10T07:25:30.903Z,9.55
2019-03-10T07:30:49.235Z,9.43
2019-03-10T07:36:11.408Z,11.15
2019-03-10T07:41:23.517Z,9.15
2019-03-10T07:46:33.488Z,10.10
2019-03-10T07:51:52.976Z,15.45
2019-03-10T07:57:08.006Z,11.25
2019-03-10T08:02:30.715Z,5.53
2019-03-10T08:07:36.815Z,10.70
2019-03-10T08:12:42.938Z,13.13
2019-03-10T08:18:06.445Z,7.53
2019-03-10T08:23:15.804Z,10.25
2019-03-10T08:28:22.086Z,9.93
2019-03-10T08:33:28.236Z,9.15
2019-03-10T08:38:50.271Z,8.33
2019-03-10T08:44:09.782Z,12.10
2019-03-10T08:49:15.833Z,11.83
2019-03-10T08:54:37.391Z,9.35
2019-03-10T08:59:49.505Z,11.63
2019-03-10T09:04:55.555Z,10.10
2019-03-10T09:10:10.980Z,8.33
2019-03-10T09:15:20.014Z,11.03
2019-03-10T09:20:26.290Z,7.55
2019-03-10T09:25:38.404Z,10.88
2019-03-10T09:30:47.527Z,12.00
2019-03-10T09:35:53.725Z,7.50
2019-03-10T09:41:15.978Z,11.20
2019-03-10T09:46:25.634Z,13.45
2019-03-10T09:51:31.919Z,11.28
2019-03-10T09:56:38.255Z,10.28
2019-03-10T10:02:00.753Z,12.90
2019-03-10T10:07:09.807Z,12.13
2019-03-10T10:12:21.593Z,10.95
2019-03-10T10:17:30.642Z,12.58
2019-03-10T10:22:42.760Z,11.90
2019-03-10T10:27:54.880Z,11.25
2019-03-10T10:33:13.145Z,8.05
2019-03-10T10:38:22.173Z,11.50
2019-03-10T10:43:44.732Z,5.90
2019-03-10T10:48:53.547Z,10.63
2019-03-10T10:54:17.645Z,10.10
2019-03-10T10:59:39.386Z,7.92
2019-03-10T11:04:54.391Z,8.95
2019-03-10T11:10:00.669Z,9.43
2019-03-10T11:15:18.542Z,8.53
2019-03-10T11:20:24.752Z,10.43
2019-03-10T11:25:30.867Z,11.68
2019-03-10T11:30:37.151Z,14.28
2019-03-10T11:35:48.927Z,7.20
2019-03-10T11:40:57.993Z,8.63
2019-03-10T11:46:20.556Z,9.38
2019-03-10T11:51:26.829Z,11.30
2019-03-10T11:56:45.103Z,9.58
2019-03-10T12:02:15.530Z,11.63
2019-03-10T12:07:19.411Z,12.73
2019-03-10T12:12:24.199Z,12.68
2019-03-10T12:17:28.942Z,9.55
2019-03-10T12:22:34.447Z,11.22
2019-03-10T12:27:39.036Z,8.13
2019-03-10T12:32:43.785Z,8.53
2019-03-10T12:37:48.213Z,7.83
2019-03-10T12:42:52.954Z,8.40
2019-03-10T12:47:57.978Z,12.93
2019-03-10T12:53:04.059Z,10.53
2019-03-10T12:58:08.717Z,11.93
2019-03-10T13:03:13.150Z,9.23
2019-03-10T13:08:17.897Z,11.55
2019-03-10T13:13:22.614Z,8.45
2019-03-10T13:18:28.297Z,10.68
2019-03-10T13:23:33.040Z,5.97
2019-03-10T13:28:37.780Z,7.00
2019-03-10T13:33:42.215Z,9.68
2019-03-10T13:38:46.650Z,15.13
2019-03-10T13:43:51.092Z,9.90
2019-03-10T13:48:55.522Z,10.38
2019-03-10T13:54:00.266Z,12.80
2019-03-10T13:59:04.797Z,11.68
2019-03-10T14:04:09.437Z,8.83
2019-03-10T14:09:14.273Z,9.83
2019-03-10T14:14:20.461Z,11.50
2019-03-10T14:19:25.224Z,12.13
2019-03-10T14:24:29.940Z,10.03
2019-03-10T14:29:36.219Z,8.33
2019-03-10T14:34:40.960Z,7.97
2019-03-10T14:39:45.705Z,10.60
2019-03-10T14:44:50.443Z,11.40
2019-03-10T14:49:54.956Z,7.03
2019-03-10T14:54:59.628Z,7.20
2019-03-10T15:00:12.945Z,8.20
2019-03-10T15:05:17.705Z,7.25
2019-03-10T15:10:22.446Z,8.63
2019-03-10T15:15:27.187Z,7.78
2019-03-10T15:20:31.929Z,4.65
2019-03-10T15:25:36.672Z,10.78
2019-03-10T15:30:41.415Z,8.78
2019-03-10T15:35:46.154Z,10.23
2019-03-10T15:40:50.898Z,10.78
2019-03-10T15:45:55.331Z,15.40
2019-03-10T15:51:00.671Z,15.50
2019-03-10T15:56:05.111Z,10.10
2019-03-10T16:01:09.865Z,13.98
2019-03-10T16:06:14.606Z,23.10
2019-03-10T16:11:19.061Z,11.70
2019-03-10T16:16:25.302Z,18.27
2019-03-10T16:21:30.674Z,185.07
2019-03-10T16:26:35.125Z,104.60
2019-03-10T16:31:39.548Z,54.77
2019-03-10T16:36:44.290Z,63.05
2019-03-10T16:41:49.031Z,125.50
2019-03-10T16:46:53.461Z,207.83
2019-03-10T16:51:58.205Z,67.50
2019-03-10T16:57:02.945Z,69.55
2019-03-10T17:02:07.686Z,100.33
2019-03-10T17:07:12.121Z,55.55
2019-03-10T17:12:16.556Z,64.92
2019-03-10T17:17:21.307Z,129.70
2019-03-10T17:22:25.810Z,250.30
2019-03-10T17:27:30.484Z,207.10
2019-03-10T17:32:37.217Z,133.65
2019-03-10T17:37:40.989Z,130.87
2019-03-10T17:42:47.163Z,84.75
2019-03-10T17:47:52.820Z,61.77
2019-03-10T17:52:57.563Z,43.83
2019-03-10T17:58:01.996Z,35.38
2019-03-10T18:03:07.356Z,50.52
2019-03-10T18:08:12.095Z,91.50
2019-03-10T18:13:16.614Z,208.13
2019-03-10T18:18:21.272Z,63.50
2019-03-10T18:23:26.012Z,40.35
2019-03-10T18:28:31.676Z,31.25
2019-03-10T18:33:36.418Z,290.30
2019-03-10T18:38:40.935Z,285.35
2019-03-10T18:43:45.597Z,145.45
2019-03-10T18:48:50.338Z,59.50
2019-03-10T18:53:56.614Z,60.45
2019-03-10T18:59:01.357Z,38.45
2019-03-10T19:04:06.119Z,29.57
2019-03-10T19:09:10.506Z,32.33
2019-03-10T19:14:15.170Z,22.87
2019-03-10T19:19:19.605Z,21.60
2019-03-10T19:24:24.170Z,38.33
2019-03-10T19:29:28.789Z,50.45
2019-03-10T19:34:33.221Z,85.45
2019-03-10T19:39:41.769Z,247.37
2019-03-10T19:44:46.387Z,40.17
2019-03-10T19:49:50.899Z,62.98
2019-03-10T19:54:55.567Z,22.20
2019-03-10T20:00:00.366Z,38.55
2019-03-10T20:05:08.435Z,70.22
2019-03-10T20:10:15.634Z,28.15
2019-03-10T20:15:24.345Z,23.27
2019-03-10T20:20:34.325Z,30.20
2019-03-10T20:25:39.147Z,51.83
2019-03-10T20:30:43.807Z,28.45
2019-03-10T20:35:48.550Z,39.20
2019-03-10T20:40:53.086Z,26.35
2019-03-10T20:45:57.726Z,22.60
2019-03-10T20:51:05.209Z,40.43
2019-03-10T20:56:09.668Z,22.37
2019-03-10T21:01:14.715Z,23.40
2019-03-10T21:06:19.245Z,21.42
2019-03-10T21:11:23.927Z,22.90
2019-03-10T21:16:28.633Z,19.75
2019-03-10T21:21:33.671Z,19.07
2019-03-10T21:26:38.186Z,27.93
2019-03-10T21:31:42.652Z,18.37
2019-03-10T21:36:47.063Z,18.50
2019-03-10T21:41:51.728Z,12.75
2019-03-10T21:46:56.239Z,17.37
2019-03-10T21:52:00.905Z,17.67
2019-03-10T21:57:05.338Z,12.85
2019-03-10T22:02:09.772Z,22.13
2019-03-10T22:07:14.514Z,45.50
2019-03-10T22:12:19.134Z,14.80
2019-03-10T22:17:23.690Z,11.93
2019-03-10T22:22:28.127Z,14.15
2019-03-10T22:27:32.559Z,15.65
2019-03-10T22:32:38.223Z,11.55
2019-03-10T22:37:42.657Z,11.53
2019-03-10T22:42:47.095Z,16.25
2019-03-10T22:47:51.527Z,15.55
2019-03-10T22:52:56.269Z,12.60
2019-03-10T22:58:00.703Z,12.53
2019-03-10T23:03:05.138Z,19.00
2019-03-10T23:08:09.880Z,12.88
2019-03-10T23:13:14.315Z,11.08
2019-03-10T23:18:18.750Z,10.95
2019-03-10T23:23:24.491Z,10.63
2019-03-10T23:28:29.154Z,10.58
2019-03-10T23:33:33.591Z,10.23
2019-03-10T23:38:38.330Z,14.83
2019-03-10T23:43:42.764Z,19.82
2019-03-10T23:48:47.202Z,19.98
2019-03-10T23:53:51.941Z,21.15
2019-03-10T23:58:56.378Z,24.90
